Time;durP1;ratioP1;P1;durP2;ratioP2;P2;SDS_P1;SDS_P2;PMS_P1;PMS_P2;Temp;Humidity;BMP_temperature;BMP_pressure;BME280_temperature;BME280_humidity;BME280_pressure;Samples;Min_cycle;Max_cycle;Signal;HPM_P1;HPM_P2
2021/10/07 00:01:17;;;;;;;52.77;8.97;;;;;;;-145.18;0.00;102943.50;5082050;28;20042;-70
2021/10/07 00:03:42;;;;;;;68.90;9.53;;;;;;;-145.18;0.00;102943.50;5077085;28;20440;-70
2021/10/07 00:06:08;;;;;;;81.37;10.03;;;;;;;-145.18;0.00;102943.50;5082150;28;20372;-71
2021/10/07 00:08:33;;;;;;;68.20;9.60;;;;;;;-145.18;0.00;102943.50;5078269;28;20114;-70
2021/10/07 00:10:59;;;;;;;66.83;10.50;;;;;;;-145.18;0.00;102943.50;5082536;28;20035;-71
2021/10/07 00:13:26;;;;;;;61.43;9.53;;;;;;;-145.18;0.00;102943.50;5074033;28;20028;-70
2021/10/07 00:15:52;;;;;;;40.63;7.90;;;;;;;-145.18;0.00;102943.50;5077710;28;20107;-70
2021/10/07 00:18:18;;;;;;;41.10;8.40;;;;;;;-145.18;0.00;102943.50;5077047;28;20465;-70
2021/10/07 00:20:43;;;;;;;47.37;9.20;;;;;;;-145.18;0.00;102943.50;5075973;28;20063;-70
2021/10/07 00:23:09;;;;;;;51.87;8.80;;;;;;;-145.18;0.00;102943.50;5078877;28;20081;-70
2021/10/07 00:25:35;;;;;;;51.37;10.33;;;;;;;-145.18;0.00;102943.50;5082302;28;20260;-70
2021/10/07 00:28:09;;;;;;;54.63;9.20;;;;;;;-145.18;0.00;102943.50;5081180;28;20024;-70
2021/10/07 00:30:36;;;;;;;62.43;9.90;;;;;;;-145.18;0.00;102943.50;5078999;28;20553;-70
2021/10/07 00:41:04;;;;;;;65.33;9.50;;;;;;;-145.18;0.00;102943.50;5079111;28;20683;-70
2021/10/07 00:43:33;;;;;;;49.87;9.73;;;;;;;-145.18;0.00;102943.50;5076259;28;20028;-70
2021/10/07 00:46:00;;;;;;;44.50;8.83;;;;;;;-145.18;0.00;102943.50;5066110;28;20032;-70
2021/10/07 00:48:25;;;;;;;46.70;9.53;;;;;;;-145.18;0.00;102943.50;5077035;28;20110;-71
2021/10/07 00:50:51;;;;;;;45.73;9.20;;;;;;;-145.18;0.00;102943.50;5068588;28;20028;-70
2021/10/07 00:53:18;;;;;;;51.33;9.70;;;;;;;-145.18;0.00;102943.50;5079512;28;20628;-70
2021/10/07 00:55:45;;;;;;;48.43;9.33;;;;;;;-145.18;0.00;102943.50;5079164;28;20043;-70
2021/10/07 00:58:13;;;;;;;42.43;9.07;;;;;;;-145.18;0.00;102943.50;5071893;28;20067;-70
2021/10/07 01:00:38;;;;;;;48.07;9.47;;;;;;;-145.18;0.00;102943.50;5077941;28;20039;-70
2021/10/07 01:03:04;;;;;;;41.30;9.27;;;;;;;-145.18;0.00;102943.50;5078927;28;20278;-70
2021/10/07 01:05:30;;;;;;;56.87;9.27;;;;;;;-145.18;0.00;102943.50;5071195;28;20043;-70
2021/10/07 01:07:57;;;;;;;46.30;9.03;;;;;;;-145.18;0.00;102943.50;5076561;28;20564;-71
2021/10/07 01:10:24;;;;;;;42.07;9.03;;;;;;;-145.18;0.00;102943.50;5064528;28;20032;-70
2021/10/07 01:12:50;;;;;;;42.83;9.60;;;;;;;-145.18;0.00;102943.50;5075142;28;20499;-71
2021/10/07 01:15:15;;;;;;;43.17;9.13;;;;;;;-145.18;0.00;102943.50;5071512;28;20031;-71
2021/10/07 01:17:41;;;;;;;43.40;9.47;;;;;;;-145.18;0.00;102943.50;5081084;28;20426;-70
2021/10/07 01:20:07;;;;;;;48.70;9.33;;;;;;;-145.18;0.00;102943.50;5070936;28;20843;-71
2021/10/07 01:22:33;;;;;;;45.03;9.10;;;;;;;-145.18;0.00;102943.50;5072020;28;20051;-70
2021/10/07 01:25:00;;;;;;;52.33;9.40;;;;;;;-145.18;0.00;102943.50;5069627;28;20428;-71
2021/10/07 01:27:28;;;;;;;47.00;8.73;;;;;;;-145.18;0.00;102943.50;5080937;28;20598;-71
2021/10/07 01:29:57;;;;;;;47.90;9.00;;;;;;;-145.18;0.00;102943.50;5074934;28;20543;-71
2021/10/07 01:32:22;;;;;;;54.67;9.97;;;;;;;-145.18;0.00;102943.50;5075945;28;20306;-70
2021/10/07 01:34:48;;;;;;;50.60;9.03;;;;;;;-145.18;0.00;102943.50;5068336;28;20229;-71
2021/10/07 01:37:14;;;;;;;47.23;8.63;;;;;;;-145.18;0.00;102943.50;5066133;28;20027;-70
2021/10/07 01:39:39;;;;;;;43.17;8.57;;;;;;;-145.18;0.00;102943.50;5062564;28;20050;-71
2021/10/07 01:42:05;;;;;;;44.80;9.77;;;;;;;-145.18;0.00;102943.50;5076450;28;20027;-71
2021/10/07 01:44:31;;;;;;;42.60;10.60;;;;;;;-145.18;0.00;102943.50;5075211;28;20020;-70
2021/10/07 01:46:56;;;;;;;55.70;11.03;;;;;;;-145.18;0.00;102943.50;5079496;28;20573;-70
2021/10/07 01:49:22;;;;;;;65.17;12.97;;;;;;;-145.18;0.00;102943.50;5079240;28;20055;-70
2021/10/07 01:51:48;;;;;;;59.50;12.20;;;;;;;-145.18;0.00;102943.50;5071346;28;20040;-70
2021/10/07 01:54:13;;;;;;;54.80;11.57;;;;;;;-145.18;0.00;102943.50;5062980;28;20292;-70
2021/10/07 01:56:39;;;;;;;55.63;12.47;;;;;;;-145.18;0.00;102943.50;5076556;28;20020;-70
2021/10/07 01:59:07;;;;;;;57.40;11.97;;;;;;;-145.18;0.00;102943.50;5077498;28;20034;-70
2021/10/07 02:01:34;;;;;;;49.00;11.37;;;;;;;-145.18;0.00;102943.50;5074935;28;20038;-70
2021/10/07 02:04:04;;;;;;;48.77;11.97;;;;;;;-145.18;0.00;102943.50;5077686;28;20621;-70
2021/10/07 02:06:29;;;;;;;47.50;11.20;;;;;;;-145.18;0.00;102943.50;5077231;28;20085;-70
2021/10/07 02:08:55;;;;;;;46.97;11.50;;;;;;;-145.18;0.00;102943.50;5071070;28;20028;-70
2021/10/07 02:11:21;;;;;;;42.80;11.03;;;;;;;-145.18;0.00;102943.50;5075042;28;20032;-70
2021/10/07 02:13:47;;;;;;;49.33;11.20;;;;;;;-145.18;0.00;102943.50;5071874;28;20190;-70
2021/10/07 02:16:13;;;;;;;43.23;10.57;;;;;;;-145.18;0.00;102943.50;5074940;28;20085;-70
2021/10/07 02:18:38;;;;;;;49.23;10.23;;;;;;;-145.18;0.00;102943.50;5064826;28;20229;-70
2021/10/07 02:21:04;;;;;;;41.37;10.13;;;;;;;-145.18;0.00;102943.50;5065066;28;20082;-70
2021/10/07 02:23:30;;;;;;;46.73;11.17;;;;;;;-145.18;0.00;102943.50;5073983;28;20514;-70
2021/10/07 02:25:55;;;;;;;43.00;10.33;;;;;;;-145.18;0.00;102943.50;5062282;28;20117;-70
2021/10/07 02:28:21;;;;;;;44.77;10.17;;;;;;;-145.18;0.00;102943.50;5071229;28;20518;-67
2021/10/07 02:30:46;;;;;;;46.73;10.50;;;;;;;-145.18;0.00;102943.50;5069360;28;20532;-67
2021/10/07 02:33:12;;;;;;;48.40;10.00;;;;;;;-145.18;0.00;102943.50;5067616;28;20036;-67
2021/10/07 02:35:38;;;;;;;50.50;11.33;;;;;;;-145.18;0.00;102943.50;5076202;28;20276;-67
2021/10/07 02:38:04;;;;;;;52.07;12.70;;;;;;;-145.18;0.00;102943.50;5078463;28;20100;-67
2021/10/07 02:40:31;;;;;;;44.60;11.33;;;;;;;-145.18;0.00;102943.50;5078621;28;20062;-67
2021/10/07 02:42:57;;;;;;;41.93;10.97;;;;;;;-145.18;0.00;102943.50;5069558;28;20510;-67
2021/10/07 02:45:24;;;;;;;39.87;11.10;;;;;;;-145.18;0.00;102943.50;5067993;28;20282;-67
2021/10/07 02:47:51;;;;;;;42.53;12.37;;;;;;;-145.18;0.00;102943.50;5078458;28;20043;-67
2021/10/07 02:50:17;;;;;;;38.03;9.90;;;;;;;-145.18;0.00;102943.50;5068722;28;20060;-67
2021/10/07 02:52:43;;;;;;;37.33;10.50;;;;;;;-145.18;0.00;102943.50;5064741;28;20024;-67
2021/10/07 02:55:09;;;;;;;41.40;10.70;;;;;;;-145.18;0.00;102943.50;5061314;28;20029;-68
2021/10/07 02:57:34;;;;;;;41.97;11.30;;;;;;;-145.18;0.00;102943.50;5078230;28;20115;-67
2021/10/07 03:00:00;;;;;;;46.57;11.67;;;;;;;-145.18;0.00;102943.50;5067563;28;20028;-70
2021/10/07 03:02:25;;;;;;;38.83;10.63;;;;;;;-145.18;0.00;102943.50;5075509;28;20545;-70
2021/10/07 03:04:52;;;;;;;36.40;9.20;;;;;;;-145.18;0.00;102943.50;5072292;28;20255;-70
2021/10/07 03:07:21;;;;;;;41.57;10.43;;;;;;;-145.18;0.00;102943.50;5062640;28;20032;-70
2021/10/07 03:09:47;;;;;;;43.57;11.33;;;;;;;-145.18;0.00;102943.50;5076923;28;20406;-70
2021/10/07 03:12:12;;;;;;;48.90;11.37;;;;;;;-145.18;0.00;102943.50;5078989;28;20028;-70
2021/10/07 03:14:40;;;;;;;40.03;10.90;;;;;;;-145.18;0.00;102943.50;5067872;28;20108;-70
2021/10/07 03:17:09;;;;;;;38.77;11.03;;;;;;;-145.18;0.00;102943.50;5065272;28;20495;-71
2021/10/07 03:19:35;;;;;;;45.20;11.47;;;;;;;-145.18;0.00;102943.50;5075152;28;20077;-70
2021/10/07 03:22:00;;;;;;;43.43;11.70;;;;;;;-145.18;0.00;102943.50;5072177;28;20024;-70
2021/10/07 03:24:26;;;;;;;47.57;11.67;;;;;;;-145.18;0.00;102943.50;5075985;28;20224;-70
2021/10/07 03:26:54;;;;;;;48.70;12.00;;;;;;;-145.18;0.00;102943.50;5077218;28;20152;-70
2021/10/07 03:29:19;;;;;;;51.97;12.03;;;;;;;-145.18;0.00;102943.50;5073452;28;20038;-70
2021/10/07 03:31:45;;;;;;;54.90;12.50;;;;;;;-145.18;0.00;102943.50;5078350;28;20024;-70
2021/10/07 03:34:23;;;;;;;52.57;10.97;;;;;;;-145.18;0.00;102943.50;5076389;28;20024;-70
2021/10/07 03:36:49;;;;;;;44.03;11.33;;;;;;;-145.18;0.00;102943.50;5071365;28;20021;-70
2021/10/07 03:39:14;;;;;;;49.60;11.23;;;;;;;-145.18;0.00;102943.50;5076498;28;20043;-70
2021/10/07 03:41:40;;;;;;;44.87;11.20;;;;;;;-145.18;0.00;102943.50;5078104;28;20101;-70
2021/10/07 03:44:06;;;;;;;49.17;11.00;;;;;;;-145.18;0.00;102943.50;5076846;28;20024;-70
2021/10/07 03:46:32;;;;;;;48.07;10.93;;;;;;;-145.18;0.00;102943.50;5074353;28;20028;-70
2021/10/07 03:48:58;;;;;;;52.43;10.87;;;;;;;-145.18;0.00;102943.50;5077264;28;20036;-70
2021/10/07 03:51:23;;;;;;;45.07;11.60;;;;;;;-145.18;0.00;102943.50;5077860;28;20330;-70
2021/10/07 03:53:52;;;;;;;48.03;11.43;;;;;;;-145.18;0.00;102943.50;5073794;28;20300;-70
2021/10/07 03:56:21;;;;;;;53.27;11.67;;;;;;;-145.18;0.00;102943.50;5070765;28;20202;-70
2021/10/07 03:58:46;;;;;;;43.47;11.77;;;;;;;-145.18;0.00;102943.50;5076260;28;20270;-70
2021/10/07 04:01:12;;;;;;;51.93;12.17;;;;;;;-145.18;0.00;102943.50;5076288;28;20214;-70
2021/10/07 04:03:38;;;;;;;47.90;11.23;;;;;;;-145.18;0.00;102943.50;5073372;28;20489;-70
2021/10/07 04:06:03;;;;;;;52.07;12.50;;;;;;;-145.18;0.00;102943.50;5069316;28;20326;-70
2021/10/07 04:08:29;;;;;;;59.57;12.70;;;;;;;-145.18;0.00;102943.50;5074355;28;20094;-70
2021/10/07 04:10:54;;;;;;;53.07;12.30;;;;;;;-145.18;0.00;102943.50;5073331;28;20100;-70
2021/10/07 04:13:21;;;;;;;51.60;12.07;;;;;;;-145.18;0.00;102943.50;5062620;28;20033;-70
2021/10/07 04:15:47;;;;;;;65.40;11.67;;;;;;;-145.18;0.00;102943.50;5072853;28;20024;-70
2021/10/07 04:18:14;;;;;;;71.17;13.40;;;;;;;-145.18;0.00;102943.50;5073665;28;20557;-70
2021/10/07 04:20:41;;;;;;;68.77;13.00;;;;;;;-145.18;0.00;102943.50;5077309;28;20032;-70
2021/10/07 04:23:06;;;;;;;76.80;13.97;;;;;;;-145.18;0.00;102943.50;5076303;28;20099;-70
2021/10/07 04:25:32;;;;;;;79.67;14.27;;;;;;;-145.18;0.00;102943.50;5074278;28;20019;-70
2021/10/07 04:27:58;;;;;;;79.57;14.30;;;;;;;-145.18;0.00;102943.50;5068310;28;20648;-70
2021/10/07 04:30:24;;;;;;;85.90;13.57;;;;;;;-145.18;0.00;102943.50;5073073;28;20099;-70
2021/10/07 04:32:49;;;;;;;75.47;13.03;;;;;;;-145.18;0.00;102943.50;5074895;28;20358;-70
2021/10/07 04:35:16;;;;;;;78.17;13.27;;;;;;;-145.18;0.00;102943.50;5065815;28;20027;-70
2021/10/07 04:37:42;;;;;;;79.50;13.73;;;;;;;-145.18;0.00;102943.50;5065816;28;20024;-70
2021/10/07 04:40:09;;;;;;;77.10;14.47;;;;;;;-145.18;0.00;102943.50;5080113;28;20287;-70
2021/10/07 04:42:34;;;;;;;85.83;13.47;;;;;;;-145.18;0.00;102943.50;5077243;28;20100;-70
2021/10/07 04:45:00;;;;;;;70.27;13.80;;;;;;;-145.18;0.00;102943.50;5073192;28;20348;-70
2021/10/07 04:47:28;;;;;;;71.10;12.57;;;;;;;-145.18;0.00;102943.50;5077933;28;20412;-70
2021/10/07 04:49:54;;;;;;;72.20;12.77;;;;;;;-145.18;0.00;102943.50;5073758;28;20040;-70
2021/10/07 04:52:20;;;;;;;72.10;12.53;;;;;;;-145.18;0.00;102943.50;5077962;28;20110;-70
2021/10/07 04:54:46;;;;;;;72.03;13.23;;;;;;;-145.18;0.00;102943.50;5077102;28;20116;-70
2021/10/07 04:57:11;;;;;;;70.73;13.97;;;;;;;-145.18;0.00;102943.50;5072732;28;20377;-70
2021/10/07 04:59:37;;;;;;;71.77;12.03;;;;;;;-145.18;0.00;102943.50;5078807;28;20248;-69
2021/10/07 05:02:02;;;;;;;51.10;11.33;;;;;;;-145.18;0.00;102943.50;5075845;28;20020;-69
2021/10/07 05:04:28;;;;;;;45.73;10.07;;;;;;;-145.18;0.00;102943.50;5077367;28;20300;-70
2021/10/07 05:06:53;;;;;;;52.13;11.17;;;;;;;-145.18;0.00;102943.50;5073291;28;20031;-70
2021/10/07 05:09:19;;;;;;;45.00;10.60;;;;;;;-145.18;0.00;102943.50;5071112;28;20443;-70
2021/10/07 05:11:45;;;;;;;43.50;10.10;;;;;;;-145.18;0.00;102943.50;5067572;28;20252;-70
2021/10/07 05:14:10;;;;;;;41.90;9.93;;;;;;;-145.18;0.00;102943.50;5080221;28;20056;-70
2021/10/07 05:16:36;;;;;;;36.90;8.80;;;;;;;-145.18;0.00;102943.50;5081031;28;20191;-70
2021/10/07 05:19:01;;;;;;;40.23;9.53;;;;;;;-145.18;0.00;102943.50;5079701;28;20032;-70
2021/10/07 05:21:27;;;;;;;43.47;9.43;;;;;;;-145.18;0.00;102943.50;5081149;28;20027;-70
2021/10/07 05:23:52;;;;;;;37.83;8.70;;;;;;;-145.18;0.00;102943.50;5071538;28;20495;-70
2021/10/07 05:26:18;;;;;;;30.67;8.80;;;;;;;-145.18;0.00;102943.50;5071200;28;20056;-70
2021/10/07 05:28:44;;;;;;;27.40;8.03;;;;;;;-145.18;0.00;102943.50;5073525;28;20029;-70
2021/10/07 05:31:11;;;;;;;27.23;7.90;;;;;;;-145.18;0.00;102943.50;5071482;28;20111;-70
2021/10/07 05:33:36;;;;;;;36.57;8.30;;;;;;;-145.18;0.00;102943.50;5077835;28;20280;-70
2021/10/07 05:36:02;;;;;;;40.10;8.70;;;;;;;-145.18;0.00;102943.50;5072223;28;20477;-70
2021/10/07 05:38:29;;;;;;;37.17;9.07;;;;;;;-145.18;0.00;102943.50;5079619;28;20267;-70
2021/10/07 05:40:54;;;;;;;37.47;8.97;;;;;;;-145.18;0.00;102943.50;5080513;28;20028;-70
2021/10/07 05:43:20;;;;;;;30.53;7.80;;;;;;;-145.18;0.00;102943.50;5079263;28;20177;-70
2021/10/07 05:45:45;;;;;;;27.10;8.00;;;;;;;-145.18;0.00;102943.50;5079708;28;20020;-70
2021/10/07 05:48:11;;;;;;;29.73;8.53;;;;;;;-145.18;0.00;102943.50;5076566;28;20181;-70
2021/10/07 05:50:37;;;;;;;28.80;8.17;;;;;;;-145.18;0.00;102943.50;5074791;28;20024;-70
2021/10/07 05:53:02;;;;;;;34.70;9.33;;;;;;;-145.18;0.00;102943.50;5078318;28;20024;-71
2021/10/07 05:55:28;;;;;;;27.87;8.43;;;;;;;-145.18;0.00;102943.50;5070077;28;20445;-71
2021/10/07 05:57:54;;;;;;;31.50;8.30;;;;;;;-145.18;0.00;102943.50;5079575;28;20026;-70
2021/10/07 06:00:21;;;;;;;28.67;9.13;;;;;;;-145.18;0.00;102943.50;5079733;28;20200;-71
2021/10/07 06:02:48;;;;;;;29.67;8.43;;;;;;;-145.18;0.00;102943.50;5078731;28;20043;-71
2021/10/07 06:05:14;;;;;;;25.20;7.50;;;;;;;-145.18;0.00;102943.50;5076774;28;20070;-71
2021/10/07 06:07:39;;;;;;;25.73;7.50;;;;;;;-145.18;0.00;102943.50;5075074;28;20260;-71
2021/10/07 06:10:07;;;;;;;24.97;7.40;;;;;;;-145.18;0.00;102943.50;5069479;28;20221;-71
2021/10/07 06:12:33;;;;;;;25.37;7.73;;;;;;;-145.18;0.00;102943.50;5079332;28;20222;-71
2021/10/07 06:14:59;;;;;;;24.37;7.57;;;;;;;-145.18;0.00;102943.50;5075728;28;20101;-71
2021/10/07 06:17:24;;;;;;;21.43;7.40;;;;;;;-145.18;0.00;102943.50;5077886;28;20028;-71
2021/10/07 06:19:55;;;;;;;23.87;8.27;;;;;;;-145.18;0.00;102943.50;5074494;28;20587;-71
2021/10/07 06:22:21;;;;;;;25.47;7.50;;;;;;;-145.18;0.00;102943.50;5066720;28;20466;-70
2021/10/07 06:24:47;;;;;;;21.57;6.77;;;;;;;-145.18;0.00;102943.50;5059143;28;20505;-70
2021/10/07 06:27:13;;;;;;;21.40;7.30;;;;;;;-145.18;0.00;102943.50;5071835;28;20306;-70
2021/10/07 06:29:38;;;;;;;20.50;7.30;;;;;;;-145.18;0.00;102943.50;5061766;28;20020;-70
2021/10/07 06:32:05;;;;;;;17.23;6.13;;;;;;;-145.18;0.00;102943.50;5071588;28;20473;-70
2021/10/07 06:34:33;;;;;;;21.63;6.87;;;;;;;-145.18;0.00;102943.50;5072325;28;20020;-70
2021/10/07 06:36:59;;;;;;;18.60;6.83;;;;;;;-145.18;0.00;102943.50;5074103;28;20323;-70
2021/10/07 06:39:24;;;;;;;22.90;7.40;;;;;;;-145.18;0.00;102943.50;5064217;28;20100;-70
2021/10/07 06:41:50;;;;;;;16.47;7.00;;;;;;;-145.18;0.00;102943.50;5074068;28;20020;-71
2021/10/07 06:44:19;;;;;;;17.67;6.30;;;;;;;-145.18;0.00;102943.50;5073411;28;20293;-70
2021/10/07 06:46:44;;;;;;;18.57;6.60;;;;;;;-145.18;0.00;102943.50;5073511;28;20265;-70
2021/10/07 06:49:10;;;;;;;15.70;6.13;;;;;;;-145.18;0.00;102943.50;5067026;28;20260;-70
2021/10/07 06:51:35;;;;;;;16.30;6.77;;;;;;;-145.18;0.00;102943.50;5072922;28;20073;-70
2021/10/07 06:54:02;;;;;;;15.93;6.07;;;;;;;-145.18;0.00;102943.50;5066375;28;20103;-70
2021/10/07 06:56:27;;;;;;;17.27;6.70;;;;;;;-145.18;0.00;102943.50;5061985;28;20767;-70
2021/10/07 06:58:53;;;;;;;16.97;6.57;;;;;;;-145.18;0.00;102943.50;5061786;28;20207;-70
2021/10/07 07:01:20;;;;;;;18.60;6.47;;;;;;;-145.18;0.00;102943.50;5072089;28;20078;-70
2021/10/07 07:03:49;;;;;;;16.67;6.13;;;;;;;-145.18;0.00;102943.50;5072573;28;20115;-70
2021/10/07 07:06:16;;;;;;;17.30;6.77;;;;;;;-145.18;0.00;102943.50;5067965;28;20464;-70
2021/10/07 07:08:42;;;;;;;16.07;6.07;;;;;;;-145.18;0.00;102943.50;5064077;28;20032;-70
2021/10/07 07:11:07;;;;;;;14.87;6.40;;;;;;;-145.18;0.00;102943.50;5074924;28;20101;-70
2021/10/07 07:13:33;;;;;;;17.00;6.03;;;;;;;-145.18;0.00;102943.50;5070234;28;20093;-70
2021/10/07 07:15:58;;;;;;;14.50;6.00;;;;;;;-145.18;0.00;102943.50;5067580;28;20265;-70
2021/10/07 07:18:24;;;;;;;16.13;6.40;;;;;;;-145.18;0.00;102943.50;5069371;28;20024;-70
2021/10/07 07:20:50;;;;;;;14.00;6.00;;;;;;;-145.18;0.00;102943.50;5075193;28;20028;-70
2021/10/07 07:23:16;;;;;;;15.00;6.20;;;;;;;-145.18;0.00;102943.50;5064814;28;20542;-70
2021/10/07 07:25:42;;;;;;;16.80;6.03;;;;;;;-145.18;0.00;102943.50;5073839;28;20028;-70
2021/10/07 07:28:07;;;;;;;15.87;6.13;;;;;;;-145.18;0.00;102943.50;5073263;28;20134;-70
2021/10/07 07:30:37;;;;;;;16.20;6.63;;;;;;;-145.18;0.00;102943.50;5062095;28;20325;-70
2021/10/07 07:33:03;;;;;;;13.63;5.77;;;;;;;-145.18;0.00;102943.50;5065523;28;20025;-70
2021/10/07 07:35:31;;;;;;;19.33;7.20;;;;;;;-145.18;0.00;102943.50;5072460;28;20031;-69
2021/10/07 07:38:02;;;;;;;22.53;9.00;;;;;;;-145.18;0.00;102943.50;5069267;28;20070;-70
2021/10/07 07:40:28;;;;;;;21.47;8.47;;;;;;;-145.18;0.00;102943.50;5066272;28;20040;-70
2021/10/07 07:42:54;;;;;;;18.37;7.70;;;;;;;-145.18;0.00;102943.50;5071491;28;20421;-70
2021/10/07 07:45:20;;;;;;;15.03;6.70;;;;;;;-145.18;0.00;102943.50;5073675;28;20056;-70
2021/10/07 07:47:45;;;;;;;16.97;6.53;;;;;;;-145.18;0.00;102943.50;5062180;28;20382;-70
2021/10/07 07:50:12;;;;;;;15.80;7.30;;;;;;;-145.18;0.00;102943.50;5064593;28;20036;-70
2021/10/07 07:52:39;;;;;;;16.13;6.83;;;;;;;-145.18;0.00;102943.50;5075598;28;20616;-70
2021/10/07 07:55:09;;;;;;;17.90;7.10;;;;;;;-145.18;0.00;102943.50;5063495;28;20036;-70
2021/10/07 07:57:38;;;;;;;16.13;6.70;;;;;;;-145.18;0.00;102943.50;5064861;28;20185;-70
2021/10/07 08:00:05;;;;;;;16.77;7.03;;;;;;;-145.18;0.00;102943.50;5065400;28;20560;-70
2021/10/07 08:02:31;;;;;;;17.97;7.97;;;;;;;-145.18;0.00;102943.50;5064416;28;20032;-70
2021/10/07 08:04:57;;;;;;;19.63;8.30;;;;;;;-145.18;0.00;102943.50;5077421;28;20036;-70
2021/10/07 08:07:22;;;;;;;17.70;8.20;;;;;;;-145.18;0.00;102943.50;5067616;28;20055;-70
2021/10/07 08:09:48;;;;;;;16.73;7.30;;;;;;;-145.18;0.00;102943.50;5077398;28;20028;-70
2021/10/07 08:14:44;;;;;;;19.70;8.03;;;;;;;-145.18;0.00;102943.50;5081251;28;20222;-70
2021/10/07 08:17:11;;;;;;;19.10;7.93;;;;;;;-145.18;0.00;102943.50;5076660;28;20038;-70
2021/10/07 08:19:37;;;;;;;17.23;7.93;;;;;;;-145.18;0.00;102943.50;5077264;28;20119;-70
2021/10/07 08:22:03;;;;;;;19.40;7.50;;;;;;;-145.18;0.00;102943.50;5068777;28;20017;-70
2021/10/07 08:24:29;;;;;;;22.00;8.77;;;;;;;-145.18;0.00;102943.50;5080651;28;20491;-70
2021/10/07 08:26:55;;;;;;;23.30;8.90;;;;;;;-145.18;0.00;102943.50;5080723;28;20024;-71
2021/10/07 08:29:20;;;;;;;20.03;7.90;;;;;;;-145.18;0.00;102943.50;5070316;28;20240;-71
2021/10/07 08:31:46;;;;;;;22.47;8.60;;;;;;;-145.18;0.00;102943.50;5070529;28;20024;-71
2021/10/07 08:34:12;;;;;;;19.37;8.40;;;;;;;-145.18;0.00;102943.50;5079159;28;20055;-71
2021/10/07 08:36:42;;;;;;;19.93;8.10;;;;;;;-145.18;0.00;102943.50;5069367;28;20035;-71
2021/10/07 08:39:12;;;;;;;20.73;8.60;;;;;;;-145.18;0.00;102943.50;5072264;28;20481;-71
2021/10/07 08:41:39;;;;;;;17.83;8.00;;;;;;;-145.18;0.00;102943.50;5073940;28;20028;-70
2021/10/07 08:44:05;;;;;;;17.67;8.07;;;;;;;-145.18;0.00;102943.50;5080003;28;20074;-71
2021/10/07 08:46:30;;;;;;;18.90;7.30;;;;;;;-145.18;0.00;102943.50;5072550;28;20032;-71
2021/10/07 08:48:56;;;;;;;19.97;8.60;;;;;;;-145.18;0.00;102943.50;5072485;28;20461;-71
2021/10/07 08:51:22;;;;;;;16.97;8.27;;;;;;;-145.18;0.00;102943.50;5077387;28;20030;-71
2021/10/07 08:53:48;;;;;;;16.87;7.53;;;;;;;-145.18;0.00;102943.50;5066767;28;20518;-71
2021/10/07 08:56:13;;;;;;;19.33;8.67;;;;;;;-145.18;0.00;102943.50;5074840;28;20403;-71
2021/10/07 08:58:39;;;;;;;17.20;8.77;;;;;;;-145.18;0.00;102943.50;5074784;28;20039;-71
2021/10/07 09:01:06;;;;;;;19.03;8.80;;;;;;;-145.18;0.00;102943.50;5067437;28;20293;-71
2021/10/07 09:03:40;;;;;;;15.07;7.90;;;;;;;-145.18;0.00;102943.50;5066912;28;20044;-71
2021/10/07 09:06:15;;;;;;;19.43;8.87;;;;;;;-145.18;0.00;102943.50;5077376;28;20364;-71
2021/10/07 09:08:48;;;;;;;17.83;8.23;;;;;;;-145.18;0.00;102943.50;5076630;28;20032;-71
2021/10/07 09:11:25;;;;;;;18.27;8.87;;;;;;;-145.18;0.00;102943.50;5070011;28;20261;-71
2021/10/07 09:13:58;;;;;;;19.90;9.30;;;;;;;-145.18;0.00;102943.50;5070315;28;20016;-71
2021/10/07 09:16:27;;;;;;;20.80;9.87;;;;;;;-145.18;0.00;102943.50;5080191;28;20036;-71
2021/10/07 09:18:54;;;;;;;19.27;8.83;;;;;;;-145.18;0.00;102943.50;5071908;28;20028;-71
2021/10/07 09:21:30;;;;;;;20.20;9.33;;;;;;;-145.18;0.00;102943.50;5072161;28;20358;-71
2021/10/07 09:23:56;;;;;;;21.10;10.43;;;;;;;-145.18;0.00;102943.50;5072242;28;20113;-71
2021/10/07 09:26:23;;;;;;;19.50;8.50;;;;;;;-145.18;0.00;102943.50;5072963;28;20103;-71
2021/10/07 09:28:59;;;;;;;16.17;7.93;;;;;;;-145.18;0.00;102943.50;5068974;28;20249;-71
2021/10/07 09:31:32;;;;;;;15.60;7.77;;;;;;;-145.18;0.00;102943.50;5076199;28;20038;-72
2021/10/07 09:34:05;;;;;;;15.70;7.53;;;;;;;-145.18;0.00;102943.50;5076172;28;20116;-71
2021/10/07 09:36:30;;;;;;;;;;;;;;;-145.18;0.00;102943.50;5072438;28;20093;-71
2021/10/07 09:38:57;;;;;;;15.60;7.90;;;;;;;-145.18;0.00;102943.50;5067084;28;19915;-71
2021/10/07 09:41:25;;;;;;;16.65;8.13;;;;;;;-145.18;0.00;102943.50;5078691;28;20468;-71
2021/10/07 09:44:06;;;;;;;18.33;8.60;;;;;;;-145.18;0.00;102943.50;5066774;28;20020;-71
2021/10/07 09:46:51;;;;;;;15.37;7.43;;;;;;;-145.18;0.00;102943.50;5074409;28;20202;-71
2021/10/07 09:49:34;;;;;;;17.10;8.03;;;;;;;-145.18;0.00;102943.50;5071663;28;20032;-71
2021/10/07 09:52:01;;;;;;;17.37;8.33;;;;;;;-145.18;0.00;102943.50;5063438;28;20036;-71
2021/10/07 09:54:34;;;;;;;14.97;7.37;;;;;;;-145.18;0.00;102943.50;5067943;28;20166;-71
2021/10/07 09:57:02;;;;;;;13.43;6.40;;;;;;;-145.18;0.00;102943.50;5076620;28;20028;-71
2021/10/07 09:59:30;;;;;;;16.97;7.90;;;;;;;-145.18;0.00;102943.50;5073066;28;20024;-71
2021/10/07 10:01:57;;;;;;;15.33;7.20;;;;;;;-145.18;0.00;102943.50;5066511;28;20199;-71
2021/10/07 10:04:24;;;;;;;14.90;6.90;;;;;;;-145.18;0.00;102943.50;5069412;28;20044;-71
2021/10/07 10:06:50;;;;;;;16.30;7.33;;;;;;;-145.18;0.00;102943.50;5077994;28;20031;-69
2021/10/07 10:09:27;;;;;;;15.70;7.50;;;;;;;-145.18;0.00;102943.50;5071204;28;20421;-71
2021/10/07 10:11:53;;;;;;;15.90;7.40;;;;;;;-145.18;0.00;102943.50;5070249;28;20274;-71
2021/10/07 10:14:20;;;;;;;16.63;7.10;;;;;;;-145.18;0.00;102943.50;5069331;28;20027;-71
2021/10/07 10:16:46;;;;;;;14.93;6.93;;;;;;;-145.18;0.00;102943.50;5071892;28;20020;-71
2021/10/07 10:19:13;;;;;;;14.67;6.53;;;;;;;-145.18;0.00;102943.50;5068040;28;20027;-71
2021/10/07 10:21:40;;;;;;;15.43;7.23;;;;;;;-145.18;0.00;102943.50;5067537;28;20400;-71
2021/10/07 10:24:08;;;;;;;15.30;7.03;;;;;;;-145.18;0.00;102943.50;5069854;28;20496;-71
2021/10/07 10:26:38;;;;;;;13.27;6.83;;;;;;;-145.18;0.00;102943.50;5073760;28;20466;-71
2021/10/07 10:29:17;;;;;;;15.27;7.43;;;;;;;-145.18;0.00;102943.50;5072030;28;20031;-71
2021/10/07 10:31:43;;;;;;;15.33;7.20;;;;;;;-145.18;0.00;102943.50;5067181;28;20481;-71
2021/10/07 10:34:13;;;;;;;13.83;6.87;;;;;;;-145.18;0.00;102943.50;5073488;28;20040;-71
2021/10/07 10:36:51;;;;;;;14.87;7.50;;;;;;;-145.18;0.00;102943.50;5073472;28;20056;-71
2021/10/07 10:39:29;;;;;;;16.23;7.73;;;;;;;-145.18;0.00;102943.50;5078987;28;20031;-71
2021/10/07 10:42:26;;;;;;;12.87;6.40;;;;;;;-145.18;0.00;102943.50;5066986;28;20043;-71
2021/10/07 10:44:56;;;;;;;12.70;6.23;;;;;;;-145.18;0.00;102943.50;5070417;28;20040;-71
2021/10/07 10:47:25;;;;;;;12.73;5.97;;;;;;;-145.18;0.00;102943.50;5077014;28;20397;-71
2021/10/07 10:49:57;;;;;;;13.47;6.07;;;;;;;-145.18;0.00;102943.50;5072183;28;20499;-71
2021/10/07 10:52:38;;;;;;;12.30;6.45;;;;;;;-145.18;0.00;102943.50;5066453;28;20036;-71
2021/10/07 10:55:10;;;;;;;12.27;6.30;;;;;;;-145.18;0.00;102943.50;5068754;28;20028;-71
2021/10/07 10:57:52;;;;;;;11.70;6.10;;;;;;;-145.18;0.00;102943.50;5065480;28;20024;-71
2021/10/07 11:00:28;;;;;;;12.80;6.50;;;;;;;-145.18;0.00;102943.50;5066863;28;20031;-71
2021/10/07 11:03:18;;;;;;;13.38;6.32;;;;;;;-145.18;0.00;102943.50;5071062;28;20610;-71
2021/10/07 11:06:02;;;;;;;10.48;5.30;;;;;;;-145.18;0.00;102943.50;5077258;28;20032;-71
2021/10/07 11:08:32;;;;;;;11.85;5.88;;;;;;;-145.18;0.00;102943.50;5062521;28;20384;-69
2021/10/07 11:10:59;;;;;;;11.25;5.93;;;;;;;-145.18;0.00;102943.50;5062303;28;20040;-70
2021/10/07 11:13:27;;;;;;;10.52;5.22;;;;;;;-145.18;0.00;102943.50;5064613;28;20416;-70
2021/10/07 11:15:57;;;;;;;9.82;4.82;;;;;;;-145.18;0.00;102943.50;5071867;28;20055;-70
2021/10/07 11:18:35;;;;;;;10.40;5.45;;;;;;;-145.18;0.00;102943.50;5069614;28;20112;-70